Time;durP1;ratioP1;P1;durP2;ratioP2;P2;SDS_P1;SDS_P2;PMS_P1;PMS_P2;Temp;Humidity;BMP_temperature;BMP_pressure;BME280_temperature;BME280_humidity;BME280_pressure;Samples;Min_cycle;Max_cycle;Signal;HPM_P1;HPM_P2
2022/07/13 00:00:45;;;;;;;0.20;0.20;;;;;;;;;;6254876;22;20371;-86
2022/07/13 00:03:11;;;;;;;0.10;0.10;;;;;;;;;;6280295;22;20094;-87
2022/07/13 00:05:37;;;;;;;0.13;0.13;;;;;;;;;;6254915;22;20076;-88
2022/07/13 00:08:02;;;;;;;0.10;0.10;;;;;;;;;;6229409;22;20018;-86
2022/07/13 00:10:29;;;;;;;0.10;0.10;;;;;;;;;;6254437;22;20459;-85
2022/07/13 00:12:55;;;;;;;0.10;0.10;;;;;;;;;;6254932;22;20015;-85
2022/07/13 00:15:21;;;;;;;0.10;0.10;;;;;;;;;;6254550;22;20019;-85
2022/07/13 00:17:47;;;;;;;0.10;0.10;;;;;;;;;;6254749;22;20444;-85
2022/07/13 00:20:13;;;;;;;0.10;0.10;;;;;;;;;;6254921;22;20019;-86
2022/07/13 00:22:39;;;;;;;0.10;0.10;;;;;;;;;;6254696;22;20015;-86
2022/07/13 00:25:06;;;;;;;0.10;0.10;;;;;;;;;;6280057;22;20051;-86
2022/07/13 00:27:32;;;;;;;0.10;0.10;;;;;;;;;;6254492;22;20017;-86
2022/07/13 00:29:58;;;;;;;0.10;0.10;;;;;;;;;;6279975;22;20086;-87
2022/07/13 00:32:24;;;;;;;0.10;0.10;;;;;;;;;;6279979;22;20175;-87
2022/07/13 00:34:50;;;;;;;0.10;0.10;;;;;;;;;;6254195;22;20046;-88
2022/07/13 00:37:16;;;;;;;0.10;0.10;;;;;;;;;;6254623;22;20336;-87
2022/07/13 00:39:42;;;;;;;0.10;0.10;;;;;;;;;;6254720;22;20020;-85
2022/07/13 00:42:08;;;;;;;0.10;0.10;;;;;;;;;;6279649;22;20449;-85
2022/07/13 00:44:34;;;;;;;0.10;0.10;;;;;;;;;;6254585;22;20106;-85
2022/07/13 00:47:00;;;;;;;0.10;0.10;;;;;;;;;;6279808;22;20453;-86
2022/07/13 00:49:26;;;;;;;0.20;0.20;;;;;;;;;;6254409;22;20436;-85
2022/07/13 00:51:52;;;;;;;0.10;0.10;;;;;;;;;;6254474;22;20378;-86
2022/07/13 00:54:20;;;;;;;0.10;0.10;;;;;;;;;;6279759;22;20007;-85
2022/07/13 00:56:46;;;;;;;0.10;0.10;;;;;;;;;;6254338;22;20008;-86
2022/07/13 00:59:12;;;;;;;0.10;0.10;;;;;;;;;;6254493;22;20083;-86
2022/07/13 01:01:38;;;;;;;0.10;0.10;;;;;;;;;;6254321;22;20175;-86
2022/07/13 01:04:04;;;;;;;0.10;0.10;;;;;;;;;;6254292;22;20007;-86
2022/07/13 01:06:30;;;;;;;0.10;0.10;;;;;;;;;;6254085;22;20371;-85
2022/07/13 01:08:56;;;;;;;0.10;0.10;;;;;;;;;;6280170;22;20087;-86
2022/07/13 01:11:22;;;;;;;0.30;0.30;;;;;;;;;;6254210;22;20329;-85
2022/07/13 01:13:48;;;;;;;0.10;0.10;;;;;;;;;;6254240;22;20343;-86
2022/07/13 01:16:14;;;;;;;0.20;0.20;;;;;;;;;;6307338;22;20007;-87
2022/07/13 01:18:40;;;;;;;0.10;0.10;;;;;;;;;;6254098;22;20007;-87
2022/07/13 01:21:06;;;;;;;0.10;0.10;;;;;;;;;;6228949;22;20069;-86
2022/07/13 01:23:32;;;;;;;0.10;0.10;;;;;;;;;;6254185;22;20039;-87
2022/07/13 01:25:58;;;;;;;0.10;0.10;;;;;;;;;;6280130;22;20374;-86
2022/07/13 01:28:24;;;;;;;0.10;0.10;;;;;;;;;;6228320;22;20049;-87
2022/07/13 01:30:50;;;;;;;0.10;0.10;;;;;;;;;;6279392;22;20336;-86
2022/07/13 01:33:16;;;;;;;0.10;0.10;;;;;;;;;;6254265;22;20015;-86
2022/07/13 01:35:42;;;;;;;0.10;0.10;;;;;;;;;;6279632;22;20018;-86
2022/07/13 01:38:08;;;;;;;0.10;0.10;;;;;;;;;;6279318;22;20094;-88
2022/07/13 01:40:34;;;;;;;0.10;0.10;;;;;;;;;;6228823;22;20015;-86
2022/07/13 01:43:00;;;;;;;0.10;0.10;;;;;;;;;;6279016;22;20050;-86
2022/07/13 01:45:26;;;;;;;0.10;0.10;;;;;;;;;;6279271;22;20015;-86
2022/07/13 01:47:52;;;;;;;0.10;0.10;;;;;;;;;;6279196;22;20034;-85
2022/07/13 01:50:19;;;;;;;0.10;0.10;;;;;;;;;;6279265;22;20015;-88
2022/07/13 01:52:45;;;;;;;0.10;0.10;;;;;;;;;;6254119;22;20401;-87
2022/07/13 01:55:12;;;;;;;0.10;0.10;;;;;;;;;;6253869;22;20098;-86
2022/07/13 01:57:38;;;;;;;0.10;0.10;;;;;;;;;;6253883;22;20448;-87
2022/07/13 02:00:06;;;;;;;0.20;0.20;;;;;;;;;;6253527;22;20019;-87
2022/07/13 02:02:32;;;;;;;0.10;0.10;;;;;;;;;;6253644;22;20035;-86
2022/07/13 02:04:57;;;;;;;0.10;0.10;;;;;;;;;;6253709;22;20007;-85
2022/07/13 02:07:23;;;;;;;0.10;0.10;;;;;;;;;;6253810;22;20021;-85
2022/07/13 02:09:50;;;;;;;0.10;0.10;;;;;;;;;;6278978;22;20017;-86
2022/07/13 02:12:16;;;;;;;0.10;0.10;;;;;;;;;;6253853;22;20065;-87
2022/07/13 02:14:42;;;;;;;0.10;0.10;;;;;;;;;;6253663;22;20015;-87
2022/07/13 02:17:08;;;;;;;0.10;0.10;;;;;;;;;;6279088;22;20188;-87
2022/07/13 02:19:34;;;;;;;0.10;0.10;;;;;;;;;;6228313;22;20015;-87
2022/07/13 02:22:00;;;;;;;0.10;0.10;;;;;;;;;;6278913;22;20096;-86
2022/07/13 02:24:26;;;;;;;0.10;0.10;;;;;;;;;;6279034;22;20011;-86
2022/07/13 02:26:52;;;;;;;0.10;0.10;;;;;;;;;;6278959;22;20440;-86
2022/07/13 02:29:18;;;;;;;0.20;0.20;;;;;;;;;;6278986;22;20082;-87
2022/07/13 02:31:44;;;;;;;0.10;0.10;;;;;;;;;;6253394;22;20015;-86
2022/07/13 02:34:10;;;;;;;0.10;0.10;;;;;;;;;;6278858;22;20015;-86
2022/07/13 02:36:36;;;;;;;0.10;0.10;;;;;;;;;;6278859;22;20042;-88
2022/07/13 02:39:02;;;;;;;0.10;0.10;;;;;;;;;;6253320;22;20091;-87
2022/07/13 02:41:28;;;;;;;0.10;0.10;;;;;;;;;;6253566;22;20019;-87
2022/07/13 02:43:54;;;;;;;0.10;0.10;;;;;;;;;;6278471;22;20072;-87
2022/07/13 02:46:20;;;;;;;0.10;0.10;;;;;;;;;;6253776;22;20012;-87
2022/07/13 02:48:46;;;;;;;0.30;0.30;;;;;;;;;;6278925;22;20018;-87
2022/07/13 02:51:12;;;;;;;0.10;0.10;;;;;;;;;;6278765;22;20007;-87
2022/07/13 02:53:38;;;;;;;0.10;0.10;;;;;;;;;;6278775;22;20145;-87
2022/07/13 02:56:06;;;;;;;0.10;0.10;;;;;;;;;;6278761;22;20052;-87
2022/07/13 02:58:32;;;;;;;0.10;0.10;;;;;;;;;;6279485;22;20015;-87
2022/07/13 03:00:58;;;;;;;0.10;0.10;;;;;;;;;;6228116;22;20018;-87
2022/07/13 03:03:24;;;;;;;0.10;0.10;;;;;;;;;;6253288;22;20042;-86
2022/07/13 03:05:50;;;;;;;0.10;0.10;;;;;;;;;;6279034;22;20101;-87
2022/07/13 03:08:16;;;;;;;0.10;0.10;;;;;;;;;;6228167;22;20041;-87
2022/07/13 03:10:42;;;;;;;0.10;0.10;;;;;;;;;;6253360;22;20012;-87
2022/07/13 03:13:08;;;;;;;0.10;0.10;;;;;;;;;;6278706;22;20495;-87
2022/07/13 03:15:34;;;;;;;0.10;0.10;;;;;;;;;;6253305;22;20016;-87
2022/07/13 03:18:00;;;;;;;0.10;0.10;;;;;;;;;;6253311;22;20086;-87
2022/07/13 03:20:26;;;;;;;0.20;0.20;;;;;;;;;;6278637;22;20448;-87
2022/07/13 03:22:52;;;;;;;0.10;0.10;;;;;;;;;;6253475;22;20019;-87
2022/07/13 03:25:18;;;;;;;0.10;0.10;;;;;;;;;;6278700;22;20018;-87
2022/07/13 03:27:44;;;;;;;0.10;0.10;;;;;;;;;;6253278;22;20015;-86
2022/07/13 03:30:10;;;;;;;0.10;0.10;;;;;;;;;;6278483;22;20444;-86
2022/07/13 03:32:36;;;;;;;0.10;0.10;;;;;;;;;;6253177;22;20025;-87
2022/07/13 03:35:02;;;;;;;0.10;0.10;;;;;;;;;;6278862;22;20007;-86
2022/07/13 03:37:28;;;;;;;0.10;0.10;;;;;;;;;;6253194;22;20011;-86
2022/07/13 03:39:54;;;;;;;0.10;0.10;;;;;;;;;;6253209;22;20090;-86
2022/07/13 03:42:20;;;;;;;0.10;0.10;;;;;;;;;;6278432;22;20055;-87
2022/07/13 03:44:46;;;;;;;0.10;0.10;;;;;;;;;;6253282;22;20015;-87
2022/07/13 03:47:12;;;;;;;0.10;0.10;;;;;;;;;;6253339;22;20159;-87
2022/07/13 03:49:38;;;;;;;0.10;0.10;;;;;;;;;;6253179;22;20510;-86
2022/07/13 03:52:04;;;;;;;0.10;0.10;;;;;;;;;;6254439;22;20012;-86
2022/07/13 03:54:31;;;;;;;0.10;0.10;;;;;;;;;;6280326;22;20011;-86
2022/07/13 03:56:57;;;;;;;0.20;0.20;;;;;;;;;;6280415;22;20512;-86
2022/07/13 03:59:23;;;;;;;0.10;0.10;;;;;;;;;;6255060;22;20047;-86
2022/07/13 04:01:49;;;;;;;0.10;0.10;;;;;;;;;;6254779;22;20012;-86
2022/07/13 04:04:15;;;;;;;0.10;0.10;;;;;;;;;;6254758;22;20011;-86
2022/07/13 04:06:41;;;;;;;0.10;0.10;;;;;;;;;;6254962;22;20082;-86
2022/07/13 04:09:07;;;;;;;0.10;0.10;;;;;;;;;;6280139;22;20018;-86
2022/07/13 04:11:33;;;;;;;0.10;0.10;;;;;;;;;;6280255;22;20031;-86
2022/07/13 04:13:58;;;;;;;0.10;0.10;;;;;;;;;;6254890;22;20015;-87
2022/07/13 04:16:24;;;;;;;0.10;0.10;;;;;;;;;;6280345;22;20015;-86
2022/07/13 04:18:50;;;;;;;0.10;0.10;;;;;;;;;;6254653;22;20015;-86
2022/07/13 04:21:16;;;;;;;0.10;0.10;;;;;;;;;;6280166;22;20039;-86
2022/07/13 04:23:42;;;;;;;0.10;0.10;;;;;;;;;;6254493;22;20015;-87
2022/07/13 04:26:08;;;;;;;0.10;0.10;;;;;;;;;;6254695;22;20066;-86
2022/07/13 04:28:34;;;;;;;0.10;0.10;;;;;;;;;;6254738;22;20067;-86
2022/07/13 04:31:00;;;;;;;0.10;0.10;;;;;;;;;;6229387;22;20452;-86
2022/07/13 04:33:26;;;;;;;0.10;0.10;;;;;;;;;;6254787;22;20314;-87
2022/07/13 04:35:52;;;;;;;0.13;0.13;;;;;;;;;;6280368;22;20011;-87
2022/07/13 04:38:18;;;;;;;0.10;0.10;;;;;;;;;;6229175;22;20054;-87
2022/07/13 04:40:45;;;;;;;0.10;0.10;;;;;;;;;;6254615;22;20022;-87
2022/07/13 04:43:11;;;;;;;0.10;0.10;;;;;;;;;;6254258;22;20023;-87
2022/07/13 04:45:37;;;;;;;0.13;0.13;;;;;;;;;;6254431;22;20480;-88
2022/07/13 04:48:04;;;;;;;0.10;0.10;;;;;;;;;;6254658;22;20011;-88
2022/07/13 04:50:30;;;;;;;0.10;0.10;;;;;;;;;;6254429;22;20079;-88
2022/07/13 04:52:56;;;;;;;0.10;0.10;;;;;;;;;;6279959;22;20053;-87
2022/07/13 04:55:22;;;;;;;0.10;0.10;;;;;;;;;;6229125;22;20519;-88
2022/07/13 04:57:48;;;;;;;0.20;0.20;;;;;;;;;;6279850;22;20015;-87
2022/07/13 05:00:14;;;;;;;0.10;0.10;;;;;;;;;;6254371;22;20100;-88
2022/07/13 05:02:40;;;;;;;0.10;0.10;;;;;;;;;;6253568;22;20015;-89
2022/07/13 05:05:06;;;;;;;0.10;0.10;;;;;;;;;;6229128;22;20026;-87
2022/07/13 05:07:32;;;;;;;0.10;0.10;;;;;;;;;;6254251;22;20011;-87
2022/07/13 05:09:58;;;;;;;0.10;0.10;;;;;;;;;;6254780;22;20081;-87
2022/07/13 05:12:24;;;;;;;0.10;0.10;;;;;;;;;;6254335;22;20015;-86
2022/07/13 05:14:50;;;;;;;0.10;0.10;;;;;;;;;;6307022;22;20014;-86
2022/07/13 05:17:16;;;;;;;0.10;0.10;;;;;;;;;;6280019;22;20336;-87
2022/07/13 05:19:43;;;;;;;0.10;0.10;;;;;;;;;;6254170;22;20011;-86
2022/07/13 05:22:11;;;;;;;0.10;0.10;;;;;;;;;;6280210;22;20087;-85
2022/07/13 05:24:37;;;;;;;0.10;0.10;;;;;;;;;;6228756;22;20314;-87
2022/07/13 05:27:03;;;;;;;0.10;0.10;;;;;;;;;;6254139;22;20011;-90
2022/07/13 05:32:53;;;;;;;0.10;0.10;;;;;;;;;;6275292;22;20020;-89
2022/07/13 05:35:19;;;;;;;0.25;0.25;;;;;;;;;;6198677;22;20069;-91
2022/07/13 05:37:46;;;;;;;0.10;0.10;;;;;;;;;;6198921;22;20043;-92
2022/07/13 05:40:13;;;;;;;0.30;0.30;;;;;;;;;;6227166;22;20506;-91
2022/07/13 05:42:39;;;;;;;0.10;0.10;;;;;;;;;;6254524;22;20042;-90
2022/07/13 05:45:05;;;;;;;0.10;0.10;;;;;;;;;;6277763;22;20069;-93
2022/07/13 05:47:31;;;;;;;0.20;0.20;;;;;;;;;;6253840;22;20011;-92
2022/07/13 05:50:01;;;;;;;0.10;0.10;;;;;;;;;;6254361;22;20105;-93
2022/07/13 05:52:27;;;;;;;0.10;0.10;;;;;;;;;;6254672;22;20015;-90
2022/07/13 05:54:54;;;;;;;0.30;0.25;;;;;;;;;;6254117;22;20012;-91
2022/07/13 05:57:20;;;;;;;0.13;0.13;;;;;;;;;;6228782;22;20317;-90
2022/07/13 05:59:46;;;;;;;0.10;0.10;;;;;;;;;;6279748;22;20069;-91
2022/07/13 06:02:12;;;;;;;0.10;0.10;;;;;;;;;;6228397;22;20011;-91
2022/07/13 06:04:38;;;;;;;0.10;0.10;;;;;;;;;;6229032;22;20011;-93
2022/07/13 06:07:04;;;;;;;0.10;0.10;;;;;;;;;;6254363;22;20398;-92
2022/07/13 06:09:30;;;;;;;0.10;0.10;;;;;;;;;;6230898;22;20011;-90
2022/07/13 06:11:56;;;;;;;0.10;0.10;;;;;;;;;;6256140;22;20011;-90
2022/07/13 06:14:22;;;;;;;0.10;0.10;;;;;;;;;;6229089;22;20022;-89
2022/07/13 06:16:48;;;;;;;0.10;0.10;;;;;;;;;;6229964;22;20384;-89
2022/07/13 06:19:14;;;;;;;0.10;0.10;;;;;;;;;;6253561;22;20012;-89
2022/07/13 06:21:40;;;;;;;0.10;0.10;;;;;;;;;;6253643;22;20011;-90
2022/07/13 06:24:07;;;;;;;0.10;0.10;;;;;;;;;;6253668;22;20011;-91
2022/07/13 06:26:33;;;;;;;0.20;0.20;;;;;;;;;;6228365;22;20038;-89
2022/07/13 06:28:59;;;;;;;0.10;0.10;;;;;;;;;;6228510;22;20153;-93
2022/07/13 06:31:25;;;;;;;0.10;0.10;;;;;;;;;;6228574;22;20015;-89
2022/07/13 06:33:52;;;;;;;0.10;0.10;;;;;;;;;;6228372;22;20021;-88
2022/07/13 06:36:18;;;;;;;0.10;0.10;;;;;;;;;;6228997;22;20381;-89
2022/07/13 06:38:45;;;;;;;0.10;0.10;;;;;;;;;;6253307;22;20094;-89
2022/07/13 06:41:10;;;;;;;0.20;0.20;;;;;;;;;;6228124;22;20015;-89
2022/07/13 06:43:36;;;;;;;0.10;0.10;;;;;;;;;;6228083;22;20072;-89
2022/07/13 06:46:02;;;;;;;0.10;0.10;;;;;;;;;;6253582;22;20336;-88
2022/07/13 06:48:29;;;;;;;0.10;0.10;;;;;;;;;;6253594;22;20085;-92
2022/07/13 06:50:55;;;;;;;0.10;0.10;;;;;;;;;;6254260;22;20027;-87
2022/07/13 06:53:21;;;;;;;0.20;0.20;;;;;;;;;;6278891;22;20015;-94
2022/07/13 06:55:47;;;;;;;0.15;0.15;;;;;;;;;;6228346;22;20094;-89
2022/07/13 06:58:13;;;;;;;0.10;0.10;;;;;;;;;;6227942;22;20463;-89
2022/07/13 07:00:39;;;;;;;0.10;0.10;;;;;;;;;;6253357;22;20015;-89
2022/07/13 07:03:05;;;;;;;0.10;0.10;;;;;;;;;;6227935;22;20015;-89
2022/07/13 07:05:31;;;;;;;0.10;0.10;;;;;;;;;;6228041;22;20077;-89
2022/07/13 07:07:58;;;;;;;0.20;0.20;;;;;;;;;;6253159;22;20444;-89
2022/07/13 07:10:24;;;;;;;0.10;0.10;;;;;;;;;;6253356;22;20065;-88
2022/07/13 07:12:50;;;;;;;0.10;0.10;;;;;;;;;;6253322;22;20011;-88
2022/07/13 07:15:16;;;;;;;0.10;0.10;;;;;;;;;;6228390;22;20015;-88
2022/07/13 07:17:49;;;;;;;0.10;0.10;;;;;;;;;;6278901;22;20529;-89
2022/07/13 07:20:21;;;;;;;0.10;0.10;;;;;;;;;;6253122;22;20011;-94
2022/07/13 07:22:50;;;;;;;0.35;0.35;;;;;;;;;;6230360;22;20041;-87
2022/07/13 07:25:16;;;;;;;0.10;0.10;;;;;;;;;;6253103;22;20018;-87
2022/07/13 07:27:42;;;;;;;0.17;0.17;;;;;;;;;;6229825;22;20049;-88
2022/07/13 07:30:08;;;;;;;0.10;0.10;;;;;;;;;;6254750;22;20379;-88
2022/07/13 07:32:34;;;;;;;0.10;0.10;;;;;;;;;;6255152;22;20015;-90
2022/07/13 07:35:00;;;;;;;0.20;0.20;;;;;;;;;;6229769;22;20145;-90
2022/07/13 07:37:26;;;;;;;0.57;0.20;;;;;;;;;;6254846;22;20022;-89
2022/07/13 07:39:52;;;;;;;0.20;0.20;;;;;;;;;;6255136;22;20046;-88
2022/07/13 07:42:18;;;;;;;0.50;0.30;;;;;;;;;;6255029;22;20017;-89
2022/07/13 07:44:44;;;;;;;0.10;0.10;;;;;;;;;;6255192;22;20018;-90
2022/07/13 07:47:10;;;;;;;0.20;0.20;;;;;;;;;;6255186;22;20086;-90
2022/07/13 07:49:36;;;;;;;0.20;0.20;;;;;;;;;;6254937;22;20043;-89
2022/07/13 07:52:02;;;;;;;0.10;0.10;;;;;;;;;;6229506;22;20019;-89
2022/07/13 07:54:28;;;;;;;0.10;0.10;;;;;;;;;;6254949;22;20046;-88
2022/07/13 07:56:54;;;;;;;0.45;0.35;;;;;;;;;;6254994;22;20043;-89
2022/07/13 07:59:21;;;;;;;0.65;0.65;;;;;;;;;;6254865;22;20476;-88
2022/07/13 08:01:47;;;;;;;0.13;0.13;;;;;;;;;;6254899;22;20017;-88
2022/07/13 08:04:13;;;;;;;0.20;0.20;;;;;;;;;;6280087;22;20504;-89
2022/07/13 08:06:39;;;;;;;0.20;0.20;;;;;;;;;;6280235;22;20007;-88
2022/07/13 08:09:05;;;;;;;0.10;0.10;;;;;;;;;;6280362;22;20017;-90
2022/07/13 08:11:31;;;;;;;0.20;0.20;;;;;;;;;;6254897;22;20014;-88
2022/07/13 08:13:57;;;;;;;0.10;0.10;;;;;;;;;;6229585;22;20015;-90
2022/07/13 08:16:23;;;;;;;0.20;0.20;;;;;;;;;;6229414;22;20077;-89
2022/07/13 08:18:49;;;;;;;0.10;0.10;;;;;;;;;;6254658;22;20050;-89
2022/07/13 08:21:15;;;;;;;0.20;0.20;;;;;;;;;;6254588;22;20042;-88
2022/07/13 08:23:54;;;;;;;0.20;0.20;;;;;;;;;;6254691;22;20011;-88
2022/07/13 08:26:28;;;;;;;0.20;0.20;;;;;;;;;;6231910;22;20082;-89
2022/07/13 08:28:54;;;;;;;0.20;0.20;;;;;;;;;;6254463;22;20175;-89
2022/07/13 08:31:21;;;;;;;0.20;0.20;;;;;;;;;;6279829;22;20456;-89
2022/07/13 08:39:15;;;;;;;0.20;0.20;;;;;;;;;;6258008;22;20094;-88
2022/07/13 08:41:41;;;;;;;0.20;0.20;;;;;;;;;;6279736;22;20043;-89
2022/07/13 08:44:08;;;;;;;0.20;0.20;;;;;;;;;;6254312;22;20015;-88
2022/07/13 08:46:34;;;;;;;0.20;0.20;;;;;;;;;;6279863;22;20378;-89
2022/07/13 08:49:00;;;;;;;0.20;0.20;;;;;;;;;;6254284;22;20415;-89
2022/07/13 08:51:26;;;;;;;0.20;0.20;;;;;;;;;;6229399;22;20007;-89
2022/07/13 08:53:52;;;;;;;0.20;0.20;;;;;;;;;;6254436;22;20160;-89
2022/07/13 08:56:19;;;;;;;1.10;0.65;;;;;;;;;;6228947;22;20011;-89
2022/07/13 08:58:45;;;;;;;0.20;0.20;;;;;;;;;;6254480;22;20015;-90
2022/07/13 09:01:11;;;;;;;0.35;0.35;;;;;;;;;;6279790;22;20011;-89
2022/07/13 09:03:37;;;;;;;0.20;0.20;;;;;;;;;;6279629;22;20015;-88
2022/07/13 09:06:03;;;;;;;0.30;0.30;;;;;;;;;;6254057;22;20011;-88
2022/07/13 09:08:29;;;;;;;0.20;0.20;;;;;;;;;;6253577;22;20128;-88
2022/07/13 09:10:57;;;;;;;0.30;0.30;;;;;;;;;;6254037;22;20100;-88
2022/07/13 09:13:38;;;;;;;0.20;0.20;;;;;;;;;;6228918;22;20014;-88
2022/07/13 09:16:04;;;;;;;;;;;;;;;;;;6254090;22;20011;-88
2022/07/13 09:18:31;;;;;;;0.30;0.30;;;;;;;;;;6279867;22;19981;-89
2022/07/13 09:20:57;;;;;;;0.20;0.20;;;;;;;;;;6254100;22;20011;-88
2022/07/13 09:23:29;;;;;;;0.40;0.40;;;;;;;;;;6254137;22;20047;-92
2022/07/13 09:25:56;;;;;;;0.20;0.20;;;;;;;;;;6229128;22;20380;-90
2022/07/13 09:28:21;;;;;;;0.20;0.20;;;;;;;;;;6254030;22;20018;-89
2022/07/13 09:30:48;;;;;;;0.30;0.30;;;;;;;;;;6228563;22;20333;-88
2022/07/13 09:33:14;;;;;;;0.30;0.30;;;;;;;;;;6279428;22;20084;-89
2022/07/13 09:35:40;;;;;;;0.30;0.30;;;;;;;;;;6253890;22;20098;-86
2022/07/13 09:38:06;;;;;;;0.20;0.20;;;;;;;;;;6253465;22;20015;-87
2022/07/13 09:40:31;;;;;;;0.35;0.35;;;;;;;;;;6279147;22;20080;-86
2022/07/13 09:48:26;;;;;;;0.20;0.20;;;;;;;;;;6278682;22;20054;-87
2022/07/13 09:50:54;;;;;;;1.33;0.68;;;;;;;;;;6278852;22;20015;-87
2022/07/13 09:53:30;;;;;;;0.20;0.20;;;;;;;;;;6278909;22;20132;-86
2022/07/13 09:55:57;;;;;;;0.20;0.20;;;;;;;;;;6253424;22;20011;-87
2022/07/13 09:58:27;;;;;;;0.20;0.20;;;;;;;;;;6253615;22;20161;-87
2022/07/13 10:00:53;;;;;;;0.20;0.20;;;;;;;;;;6259496;22;20065;-88
2022/07/13 10:03:19;;;;;;;0.20;0.20;;;;;;;;;;6257895;22;20393;-87
2022/07/13 10:05:45;;;;;;;0.20;0.20;;;;;;;;;;6257771;22;20057;-88
2022/07/13 10:08:15;;;;;;;0.20;0.20;;;;;;;;;;6255262;22;20068;-88
2022/07/13 10:10:41;;;;;;;0.30;0.30;;;;;;;;;;6254522;22;20012;-89
2022/07/13 10:13:07;;;;;;;0.20;0.20;;;;;;;;;;6253300;22;20014;-89
2022/07/13 10:15:33;;;;;;;0.20;0.20;;;;;;;;;;6277293;22;20333;-90
2022/07/13 10:18:00;;;;;;;0.20;0.20;;;;;;;;;;6278537;22;20113;-87
2022/07/13 10:20:26;;;;;;;0.20;0.20;;;;;;;;;;6253036;22;20460;-87
2022/07/13 10:22:52;;;;;;;0.30;0.30;;;;;;;;;;6253038;22;20063;-87
2022/07/13 10:25:18;;;;;;;0.20;0.20;;;;;;;;;;6278727;22;20336;-87
2022/07/13 10:27:44;;;;;;;0.40;0.40;;;;;;;;;;6253363;22;20086;-87
2022/07/13 10:30:16;;;;;;;0.40;0.40;;;;;;;;;;6253021;22;20011;-87
2022/07/13 10:32:42;;;;;;;0.20;0.20;;;;;;;;;;6278235;22;20027;-87
2022/07/13 10:35:09;;;;;;;0.20;0.20;;;;;;;;;;6227568;22;20023;-87
2022/07/13 10:37:54;;;;;;;0.20;0.20;;;;;;;;;;6253418;22;20019;-87
2022/07/13 10:40:20;;;;;;;0.20;0.20;;;;;;;;;;6278724;22;20322;-87
2022/07/13 10:43:04;;;;;;;0.20;0.20;;;;;;;;;;6227936;22;20351;-86
2022/07/13 10:45:39;;;;;;;0.20;0.20;;;;;;;;;;6253006;22;20069;-86
2022/07/13 10:48:06;;;;;;;0.20;0.20;;;;;;;;;;6278902;22;20378;-87
2022/07/13 10:50:47;;;;;;;0.20;0.20;;;;;;;;;;6253400;22;20069;-87
2022/07/13 10:53:15;;;;;;;0.20;0.20;;;;;;;;;;6278851;22;20140;-86
2022/07/13 10:55:50;;;;;;;0.20;0.20;;;;;;;;;;6278667;22;20015;-87
2022/07/13 10:58:31;;;;;;;0.30;0.30;;;;;;;;;;6253016;22;20321;-86
2022/07/13 11:00:58;;;;;;;0.20;0.20;;;;;;;;;;6279211;22;20019;-86
2022/07/13 11:03:28;;;;;;;0.38;0.38;;;;;;;;;;6254831;22;20016;-87
2022/07/13 11:06:05;;;;;;;0.32;0.32;;;;;;;;;;6280669;22;20539;-87
2022/07/13 11:08:31;;;;;;;0.20;0.20;;;;;;;;;;6255357;22;20029;-88
2022/07/13 11:11:11;;;;;;;0.20;0.20;;;;;;;;;;6230119;22;20035;-88
2022/07/13 11:13:37;;;;;;;0.20;0.20;;;;;;;;;;6229229;22;20023;-88
2022/07/13 11:16:03;;;;;;;0.20;0.20;;;;;;;;;;6255273;22;20015;-87
2022/07/13 11:18:35;;;;;;;0.20;0.20;;;;;;;;;;6254999;22;20019;-88
2022/07/13 11:21:01;;;;;;;0.20;0.20;;;;;;;;;;6230049;22;20023;-88
2022/07/13 11:26:14;;;;;;;0.20;0.20;;;;;;;;;;6280864;22;20011;-88
2022/07/13 11:28:46;;;;;;;0.20;0.20;;;;;;;;;;6280346;22;20014;-87
2022/07/13 11:31:12;;;;;;;0.20;0.20;;;;;;;;;;6280425;22;20022;-88
2022/07/13 11:33:38;;;;;;;0.20;0.20;;;;;;;;;;6254794;22;20015;-87
2022/07/13 11:36:04;;;;;;;0.20;0.20;;;;;;;;;;6280468;22;20015;-88
2022/07/13 11:38:36;;;;;;;0.20;0.20;;;;;;;;;;6280306;22;20026;-87
2022/07/13 11:41:02;;;;;;;0.20;0.20;;;;;;;;;;6280441;22;20179;-87
2022/07/13 11:43:28;;;;;;;0.30;0.30;;;;;;;;;;6254751;22;20015;-88
2022/07/13 11:45:54;;;;;;;0.47;0.47;;;;;;;;;;6280150;22;20314;-88
2022/07/13 11:48:24;;;;;;;0.20;0.20;;;;;;;;;;6254758;22;20007;-88
2022/07/13 11:50:51;;;;;;;0.47;0.47;;;;;;;;;;6280381;22;20023;-87
2022/07/13 11:53:21;;;;;;;0.20;0.20;;;;;;;;;;6255101;22;20505;-88
2022/07/13 11:55:47;;;;;;;0.20;0.20;;;;;;;;;;6254655;22;20022;-88
2022/07/13 11:58:32;;;;;;;0.20;0.20;;;;;;;;;;6254765;22;20116;-87
2022/07/13 12:01:02;;;;;;;0.20;0.20;;;;;;;;;;6254888;22;20011;-88
2022/07/13 12:03:28;;;;;;;0.10;0.10;;;;;;;;;;6254408;22;20011;-87
2022/07/13 12:05:58;;;;;;;0.75;0.75;;;;;;;;;;6254850;22;20324;-88
2022/07/13 12:08:24;;;;;;;0.45;0.45;;;;;;;;;;6254476;22;20038;-88
2022/07/13 12:10:50;;;;;;;0.20;0.20;;;;;;;;;;6254799;22;20015;-88
2022/07/13 12:13:16;;;;;;;0.20;0.20;;;;;;;;;;6254604;22;20046;-88
2022/07/13 12:15:44;;;;;;;0.20;0.20;;;;;;;;;;6229384;22;20305;-88
2022/07/13 12:18:12;;;;;;;0.20;0.20;;;;;;;;;;6280068;22;20015;-87
2022/07/13 12:20:38;;;;;;;0.17;0.17;;;;;;;;;;6229977;22;20047;-88
2022/07/13 12:23:05;;;;;;;0.17;0.17;;;;;;;;;;6279775;22;20019;-87
2022/07/13 12:25:34;;;;;;;0.30;0.30;;;;;;;;;;6254726;22;20086;-88
2022/07/13 12:28:01;;;;;;;0.20;0.20;;;;;;;;;;6229213;22;20090;-88
2022/07/13 12:30:27;;;;;;;0.20;0.20;;;;;;;;;;6254360;22;20011;-88
2022/07/13 12:32:57;;;;;;;0.20;0.20;;;;;;;;;;6254316;22;20015;-88
2022/07/13 12:35:36;;;;;;;0.20;0.20;;;;;;;;;;6279808;22;20015;-87
2022/07/13 12:38:09;;;;;;;0.20;0.20;;;;;;;;;;6254094;22;20015;-88
2022/07/13 12:40:52;;;;;;;0.30;0.30;;;;;;;;;;6253958;22;20026;-87
2022/07/13 12:43:22;;;;;;;0.25;0.25;;;;;;;;;;6229897;22;20016;-87
2022/07/13 12:45:48;;;;;;;0.52;0.52;;;;;;;;;;6254167;22;20082;-86
2022/07/13 12:48:18;;;;;;;0.30;0.30;;;;;;;;;;6254028;22;20046;-87
2022/07/13 12:51:13;;;;;;;0.20;0.20;;;;;;;;;;6254101;22;20336;-87
2022/07/13 12:53:49;;;;;;;0.20;0.20;;;;;;;;;;6247521;22;20456;-87
2022/07/13 12:56:15;;;;;;;0.20;0.20;;;;;;;;;;6252986;22;20011;-86
2022/07/13 12:58:43;;;;;;;0.20;0.20;;;;;;;;;;6228303;22;20444;-87
2022/07/13 13:01:09;;;;;;;0.20;0.20;;;;;;;;;;6228824;22;20018;-88
2022/07/13 13:03:35;;;;;;;0.25;0.25;;;;;;;;;;6279446;22;20015;-89
2022/07/13 13:06:01;;;;;;;0.20;0.20;;;;;;;;;;6254121;22;20011;-89
2022/07/13 13:08:27;;;;;;;0.20;0.20;;;;;;;;;;6253886;22;20324;-88
2022/07/13 13:10:53;;;;;;;0.17;0.17;;;;;;;;;;6279150;22;20011;-88
2022/07/13 13:13:19;;;;;;;0.20;0.20;;;;;;;;;;6279552;22;20058;-87
2022/07/13 13:15:45;;;;;;;0.20;0.20;;;;;;;;;;6254033;22;20011;-88
2022/07/13 13:18:11;;;;;;;0.10;0.10;;;;;;;;;;6228554;22;20026;-87
2022/07/13 13:20:37;;;;;;;0.20;0.20;;;;;;;;;;6279369;22;20390;-87
2022/07/13 13:23:03;;;;;;;1.10;0.30;;;;;;;;;;6253305;22;20011;-87
2022/07/13 13:25:29;;;;;;;0.20;0.20;;;;;;;;;;6253644;22;20007;-88
2022/07/13 13:27:55;;;;;;;0.17;0.17;;;;;;;;;;6253824;22;20076;-87
2022/07/13 13:33:05;;;;;;;0.20;0.20;;;;;;;;;;6248189;22;20027;-88
2022/07/13 13:35:31;;;;;;;0.20;0.20;;;;;;;;;;6248500;22;20457;-88
2022/07/13 13:37:58;;;;;;;0.20;0.20;;;;;;;;;;6248564;22;20012;-88
2022/07/13 13:40:24;;;;;;;0.20;0.20;;;;;;;;;;6248500;22;20015;-87
2022/07/13 13:42:50;;;;;;;0.20;0.20;;;;;;;;;;6248744;22;20051;-87
2022/07/13 13:45:16;;;;;;;0.10;0.10;;;;;;;;;;6248528;22;20468;-87
2022/07/13 13:47:42;;;;;;;0.20;0.20;;;;;;;;;;6248557;22;20341;-87
2022/07/13 13:50:08;;;;;;;0.20;0.20;;;;;;;;;;6223139;22;20018;-88
2022/07/13 13:52:34;;;;;;;0.20;0.20;;;;;;;;;;6248355;22;20142;-87
2022/07/13 13:55:01;;;;;;;0.20;0.20;;;;;;;;;;6223343;22;20047;-88
2022/07/13 13:57:27;;;;;;;0.30;0.30;;;;;;;;;;6248367;22;20039;-88
2022/07/13 13:59:53;;;;;;;0.20;0.20;;;;;;;;;;6223009;22;20062;-88
2022/07/13 14:02:19;;;;;;;0.20;0.20;;;;;;;;;;6247442;22;20016;-89
2022/07/13 14:04:45;;;;;;;0.30;0.30;;;;;;;;;;6248221;22;20008;-89
2022/07/13 14:07:11;;;;;;;0.20;0.20;;;;;;;;;;6248670;22;20374;-89
2022/07/13 14:09:37;;;;;;;0.30;0.30;;;;;;;;;;6248265;22;20011;-89
2022/07/13 14:12:03;;;;;;;1.77;0.65;;;;;;;;;;6248416;22;20007;-89
2022/07/13 14:14:29;;;;;;;0.20;0.20;;;;;;;;;;6248447;22;20516;-90
2022/07/13 14:16:55;;;;;;;0.22;0.22;;;;;;;;;;6248250;22;20008;-88
2022/07/13 14:19:23;;;;;;;0.20;0.20;;;;;;;;;;6247984;22;20073;-89
2022/07/13 14:21:49;;;;;;;0.20;0.20;;;;;;;;;;6248043;22;20085;-89
2022/07/13 14:24:16;;;;;;;0.10;0.10;;;;;;;;;;6248154;22;20448;-88
2022/07/13 14:26:43;;;;;;;0.20;0.20;;;;;;;;;;6248099;22;20007;-89
2022/07/13 14:29:09;;;;;;;0.20;0.20;;;;;;;;;;6247946;22;20007;-87
2022/07/13 14:31:35;;;;;;;0.80;0.80;;;;;;;;;;6222796;22;20012;-90
2022/07/13 14:34:01;;;;;;;0.20;0.20;;;;;;;;;;6248002;22;20073;-87
2022/07/13 14:36:27;;;;;;;0.20;0.20;;;;;;;;;;6222598;22;20019;-87
2022/07/13 14:38:53;;;;;;;0.20;0.20;;;;;;;;;;6247999;22;20385;-91
2022/07/13 14:41:19;;;;;;;0.20;0.20;;;;;;;;;;6248283;22;20027;-89
2022/07/13 14:43:46;;;;;;;0.20;0.20;;;;;;;;;;6222849;22;20302;-90
2022/07/13 14:46:12;;;;;;;0.10;0.10;;;;;;;;;;6222685;22;20450;-88
2022/07/13 14:48:41;;;;;;;0.45;0.40;;;;;;;;;;6247737;22;20014;-90
2022/07/13 14:51:07;;;;;;;0.20;0.20;;;;;;;;;;6248961;22;20014;-90
2022/07/13 14:53:33;;;;;;;0.43;0.43;;;;;;;;;;6222729;22;20036;-89
2022/07/13 14:55:59;;;;;;;0.20;0.20;;;;;;;;;;6247988;22;20015;-89
2022/07/13 14:58:25;;;;;;;0.13;0.13;;;;;;;;;;6248216;22;20060;-89
2022/07/13 15:00:51;;;;;;;0.15;0.15;;;;;;;;;;6247930;22;20092;-88